sensor_id;sensor_type;location;lat;lon;timestamp;temperature;humidity
2749;DHT22;1382;52.142;11.618;2024-03-08T00:01:49;8.60;50.10
2749;DHT22;1382;52.142;11.618;2024-03-08T00:04:15;8.60;50.10
2749;DHT22;1382;52.142;11.618;2024-03-08T00:06:42;8.60;50.10
2749;DHT22;1382;52.142;11.618;2024-03-08T00:09:09;8.50;50.10
2749;DHT22;1382;52.142;11.618;2024-03-08T00:11:36;8.50;50.10
2749;DHT22;1382;52.142;11.618;2024-03-08T00:14:04;8.50;50.10
2749;DHT22;1382;52.142;11.618;2024-03-08T00:16:31;8.50;50.10
2749;DHT22;1382;52.142;11.618;2024-03-08T00:18:58;8.40;50.20
2749;DHT22;1382;52.142;11.618;2024-03-08T00:21:25;8.30;50.10
2749;DHT22;1382;52.142;11.618;2024-03-08T00:23:52;8.30;50.20
2749;DHT22;1382;52.142;11.618;2024-03-08T00:26:18;8.30;50.20
2749;DHT22;1382;52.142;11.618;2024-03-08T00:28:45;8.30;50.30
2749;DHT22;1382;52.142;11.618;2024-03-08T00:31:13;8.20;50.20
2749;DHT22;1382;52.142;11.618;2024-03-08T00:33:40;8.20;50.30
2749;DHT22;1382;52.142;11.618;2024-03-08T00:36:07;8.10;50.90
2749;DHT22;1382;52.142;11.618;2024-03-08T00:38:34;8.20;50.40
2749;DHT22;1382;52.142;11.618;2024-03-08T00:41:01;8.00;50.30
2749;DHT22;1382;52.142;11.618;2024-03-08T00:43:28;8.00;50.30
2749;DHT22;1382;52.142;11.618;2024-03-08T00:45:54;8.00;50.40
2749;DHT22;1382;52.142;11.618;2024-03-08T00:48:23;7.90;50.30
2749;DHT22;1382;52.142;11.618;2024-03-08T00:50:50;7.90;50.40
2749;DHT22;1382;52.142;11.618;2024-03-08T00:53:16;7.90;50.40
2749;DHT22;1382;52.142;11.618;2024-03-08T00:55:46;7.80;50.40
2749;DHT22;1382;52.142;11.618;2024-03-08T00:58:13;7.80;50.40
2749;DHT22;1382;52.142;11.618;2024-03-08T01:00:40;7.80;50.50
2749;DHT22;1382;52.142;11.618;2024-03-08T01:03:06;7.70;50.50
2749;DHT22;1382;52.142;11.618;2024-03-08T01:05:35;7.70;50.50
2749;DHT22;1382;52.142;11.618;2024-03-08T01:08:02;7.60;50.50
2749;DHT22;1382;52.142;11.618;2024-03-08T01:10:29;7.60;50.50
2749;DHT22;1382;52.142;11.618;2024-03-08T01:12:55;7.60;50.50
2749;DHT22;1382;52.142;11.618;2024-03-08T01:15:22;7.60;50.50
2749;DHT22;1382;52.142;11.618;2024-03-08T01:17:49;7.50;50.50
2749;DHT22;1382;52.142;11.618;2024-03-08T01:20:16;7.40;50.60
2749;DHT22;1382;52.142;11.618;2024-03-08T01:22:44;7.40;50.60
2749;DHT22;1382;52.142;11.618;2024-03-08T01:25:11;7.40;50.60
2749;DHT22;1382;52.142;11.618;2024-03-08T01:27:38;7.30;50.60
2749;DHT22;1382;52.142;11.618;2024-03-08T01:30:06;7.30;50.80
2749;DHT22;1382;52.142;11.618;2024-03-08T01:32:33;7.30;50.80
2749;DHT22;1382;52.142;11.618;2024-03-08T01:34:59;7.20;50.80
2749;DHT22;1382;52.142;11.618;2024-03-08T01:37:26;7.20;50.90
2749;DHT22;1382;52.142;11.618;2024-03-08T01:39:54;7.20;50.90
2749;DHT22;1382;52.142;11.618;2024-03-08T01:42:21;7.20;50.90
2749;DHT22;1382;52.142;11.618;2024-03-08T01:44:48;7.30;51.00
2749;DHT22;1382;52.142;11.618;2024-03-08T01:47:15;7.10;50.80
2749;DHT22;1382;52.142;11.618;2024-03-08T01:49:42;7.10;51.00
2749;DHT22;1382;52.142;11.618;2024-03-08T01:52:09;7.10;51.00
2749;DHT22;1382;52.142;11.618;2024-03-08T01:54:36;7.00;50.90
2749;DHT22;1382;52.142;11.618;2024-03-08T01:57:05;7.00;50.90
2749;DHT22;1382;52.142;11.618;2024-03-08T01:59:32;7.00;50.80
2749;DHT22;1382;52.142;11.618;2024-03-08T02:02:01;7.00;50.90
2749;DHT22;1382;52.142;11.618;2024-03-08T02:04:28;7.00;50.80
2749;DHT22;1382;52.142;11.618;2024-03-08T02:06:55;7.00;50.90
2749;DHT22;1382;52.142;11.618;2024-03-08T02:09:22;7.00;50.90
2749;DHT22;1382;52.142;11.618;2024-03-08T02:11:49;7.00;50.90
2749;DHT22;1382;52.142;11.618;2024-03-08T02:14:17;6.90;50.70
2749;DHT22;1382;52.142;11.618;2024-03-08T02:16:44;6.90;51.40
2749;DHT22;1382;52.142;11.618;2024-03-08T02:19:11;6.90;50.80
2749;DHT22;1382;52.142;11.618;2024-03-08T02:21:39;6.90;50.80
2749;DHT22;1382;52.142;11.618;2024-03-08T02:24:06;6.90;50.70
2749;DHT22;1382;52.142;11.618;2024-03-08T02:26:33;6.90;50.70
2749;DHT22;1382;52.142;11.618;2024-03-08T02:29:01;6.80;50.70
2749;DHT22;1382;52.142;11.618;2024-03-08T02:31:28;6.80;50.70
2749;DHT22;1382;52.142;11.618;2024-03-08T02:33:55;6.80;50.70
2749;DHT22;1382;52.142;11.618;2024-03-08T02:36:22;6.80;50.70
2749;DHT22;1382;52.142;11.618;2024-03-08T02:38:50;6.80;50.70
2749;DHT22;1382;52.142;11.618;2024-03-08T02:41:17;6.80;50.70
2749;DHT22;1382;52.142;11.618;2024-03-08T02:43:44;6.80;51.40
2749;DHT22;1382;52.142;11.618;2024-03-08T02:46:10;6.70;50.60
2749;DHT22;1382;52.142;11.618;2024-03-08T02:48:37;6.70;50.60
2749;DHT22;1382;52.142;11.618;2024-03-08T02:51:05;6.70;50.60
2749;DHT22;1382;52.142;11.618;2024-03-08T02:53:32;6.70;50.50
2749;DHT22;1382;52.142;11.618;2024-03-08T02:56:00;6.70;50.60
2749;DHT22;1382;52.142;11.618;2024-03-08T02:58:27;6.70;50.50
2749;DHT22;1382;52.142;11.618;2024-03-08T03:00:53;6.60;50.40
2749;DHT22;1382;52.142;11.618;2024-03-08T03:03:20;6.80;50.60
2749;DHT22;1382;52.142;11.618;2024-03-08T03:05:47;6.60;50.40
2749;DHT22;1382;52.142;11.618;2024-03-08T03:08:15;6.60;50.40
2749;DHT22;1382;52.142;11.618;2024-03-08T03:10:42;6.60;50.40
2749;DHT22;1382;52.142;11.618;2024-03-08T03:13:10;6.60;50.40
2749;DHT22;1382;52.142;11.618;2024-03-08T03:15:37;6.60;50.40
2749;DHT22;1382;52.142;11.618;2024-03-08T03:18:05;6.50;50.40
2749;DHT22;1382;52.142;11.618;2024-03-08T03:20:32;6.50;50.40
2749;DHT22;1382;52.142;11.618;2024-03-08T03:23:00;6.50;50.50
2749;DHT22;1382;52.142;11.618;2024-03-08T03:25:27;6.50;50.40
2749;DHT22;1382;52.142;11.618;2024-03-08T03:27:54;6.50;50.50
2749;DHT22;1382;52.142;11.618;2024-03-08T03:30:22;6.60;50.60
2749;DHT22;1382;52.142;11.618;2024-03-08T03:32:49;6.40;50.50
2749;DHT22;1382;52.142;11.618;2024-03-08T03:35:17;6.40;50.40
2749;DHT22;1382;52.142;11.618;2024-03-08T03:37:44;6.50;50.60
2749;DHT22;1382;52.142;11.618;2024-03-08T03:40:12;6.30;50.40
2749;DHT22;1382;52.142;11.618;2024-03-08T03:42:39;6.30;50.40
2749;DHT22;1382;52.142;11.618;2024-03-08T03:45:06;6.30;50.50
2749;DHT22;1382;52.142;11.618;2024-03-08T03:47:35;6.30;50.40
2749;DHT22;1382;52.142;11.618;2024-03-08T03:50:01;6.30;50.40
2749;DHT22;1382;52.142;11.618;2024-03-08T03:52:28;6.30;50.50
2749;DHT22;1382;52.142;11.618;2024-03-08T03:54:55;6.20;50.40
2749;DHT22;1382;52.142;11.618;2024-03-08T03:57:22;6.20;50.40
2749;DHT22;1382;52.142;11.618;2024-03-08T03:59:49;6.20;50.50
2749;DHT22;1382;52.142;11.618;2024-03-08T04:02:16;6.20;50.40
2749;DHT22;1382;52.142;11.618;2024-03-08T04:04:44;6.20;50.40
2749;DHT22;1382;52.142;11.618;2024-03-08T04:07:11;6.20;50.40
2749;DHT22;1382;52.142;11.618;2024-03-08T04:09:37;6.10;50.40
2749;DHT22;1382;52.142;11.618;2024-03-08T04:12:05;6.10;50.50
2749;DHT22;1382;52.142;11.618;2024-03-08T04:14:32;6.10;50.50
2749;DHT22;1382;52.142;11.618;2024-03-08T04:16:59;6.00;50.50
2749;DHT22;1382;52.142;11.618;2024-03-08T04:19:25;6.00;50.50
2749;DHT22;1382;52.142;11.618;2024-03-08T04:21:53;6.00;50.60
2749;DHT22;1382;52.142;11.618;2024-03-08T04:24:20;6.00;50.60
2749;DHT22;1382;52.142;11.618;2024-03-08T04:26:47;6.00;50.70
2749;DHT22;1382;52.142;11.618;2024-03-08T04:29:14;5.90;50.60
2749;DHT22;1382;52.142;11.618;2024-03-08T04:31:41;6.00;50.60
2749;DHT22;1382;52.142;11.618;2024-03-08T04:34:07;5.90;50.60
2749;DHT22;1382;52.142;11.618;2024-03-08T04:36:34;5.90;50.60
2749;DHT22;1382;52.142;11.618;2024-03-08T04:39:02;5.90;50.60
2749;DHT22;1382;52.142;11.618;2024-03-08T04:41:29;5.90;50.60
2749;DHT22;1382;52.142;11.618;2024-03-08T04:43:57;5.80;50.60
2749;DHT22;1382;52.142;11.618;2024-03-08T04:46:24;5.80;50.60
2749;DHT22;1382;52.142;11.618;2024-03-08T04:48:51;5.80;50.60
2749;DHT22;1382;52.142;11.618;2024-03-08T04:51:18;5.80;50.70
2749;DHT22;1382;52.142;11.618;2024-03-08T04:53:45;5.80;50.70
2749;DHT22;1382;52.142;11.618;2024-03-08T04:56:13;5.80;50.70
2749;DHT22;1382;52.142;11.618;2024-03-08T04:58:40;5.70;51.20
2749;DHT22;1382;52.142;11.618;2024-03-08T05:01:07;5.70;50.60
2749;DHT22;1382;52.142;11.618;2024-03-08T05:03:34;5.70;50.60
2749;DHT22;1382;52.142;11.618;2024-03-08T05:06:00;5.70;50.70
2749;DHT22;1382;52.142;11.618;2024-03-08T05:08:27;5.70;50.70
2749;DHT22;1382;52.142;11.618;2024-03-08T05:10:54;5.60;50.70
2749;DHT22;1382;52.142;11.618;2024-03-08T05:13:22;5.60;50.70
2749;DHT22;1382;52.142;11.618;2024-03-08T05:15:49;5.60;50.70
2749;DHT22;1382;52.142;11.618;2024-03-08T05:18:16;5.60;50.70
2749;DHT22;1382;52.142;11.618;2024-03-08T05:20:43;5.60;50.70
2749;DHT22;1382;52.142;11.618;2024-03-08T05:23:10;5.60;50.70
2749;DHT22;1382;52.142;11.618;2024-03-08T05:25:37;5.50;50.70
2749;DHT22;1382;52.142;11.618;2024-03-08T05:28:05;5.50;50.70
2749;DHT22;1382;52.142;11.618;2024-03-08T05:30:33;5.50;50.60
2749;DHT22;1382;52.142;11.618;2024-03-08T05:33:00;5.50;50.70
2749;DHT22;1382;52.142;11.618;2024-03-08T05:35:26;5.40;50.60
2749;DHT22;1382;52.142;11.618;2024-03-08T05:37:53;5.60;50.90
2749;DHT22;1382;52.142;11.618;2024-03-08T05:40:20;5.40;50.90
2749;DHT22;1382;52.142;11.618;2024-03-08T05:42:49;5.40;50.90
2749;DHT22;1382;52.142;11.618;2024-03-08T05:45:16;5.40;51.00
2749;DHT22;1382;52.142;11.618;2024-03-08T05:47:44;5.40;50.90
2749;DHT22;1382;52.142;11.618;2024-03-08T05:50:11;5.30;50.90
2749;DHT22;1382;52.142;11.618;2024-03-08T05:52:38;5.40;50.90
2749;DHT22;1382;52.142;11.618;2024-03-08T05:55:05;5.30;50.80
2749;DHT22;1382;52.142;11.618;2024-03-08T05:57:32;5.30;50.80
2749;DHT22;1382;52.142;11.618;2024-03-08T05:59:59;5.30;50.80
2749;DHT22;1382;52.142;11.618;2024-03-08T06:02:26;5.30;50.90
2749;DHT22;1382;52.142;11.618;2024-03-08T06:04:54;5.30;50.90
2749;DHT22;1382;52.142;11.618;2024-03-08T06:07:21;5.30;50.80
2749;DHT22;1382;52.142;11.618;2024-03-08T06:09:48;5.30;50.90
2749;DHT22;1382;52.142;11.618;2024-03-08T06:12:15;5.20;50.80
2749;DHT22;1382;52.142;11.618;2024-03-08T06:14:42;5.20;50.90
2749;DHT22;1382;52.142;11.618;2024-03-08T06:17:08;5.40;51.10
2749;DHT22;1382;52.142;11.618;2024-03-08T06:19:35;5.20;50.90
2749;DHT22;1382;52.142;11.618;2024-03-08T06:22:04;5.20;50.90
2749;DHT22;1382;52.142;11.618;2024-03-08T06:24:30;5.10;50.90
2749;DHT22;1382;52.142;11.618;2024-03-08T06:26:57;5.30;51.10
2749;DHT22;1382;52.142;11.618;2024-03-08T06:29:24;5.10;51.00
2749;DHT22;1382;52.142;11.618;2024-03-08T06:31:51;5.10;51.00
2749;DHT22;1382;52.142;11.618;2024-03-08T06:34:21;5.10;51.00
2749;DHT22;1382;52.142;11.618;2024-03-08T06:36:48;5.10;51.10
2749;DHT22;1382;52.142;11.618;2024-03-08T06:39:16;5.10;51.20
2749;DHT22;1382;52.142;11.618;2024-03-08T06:41:43;5.10;51.20
2749;DHT22;1382;52.142;11.618;2024-03-08T06:44:09;5.10;51.30
2749;DHT22;1382;52.142;11.618;2024-03-08T06:46:36;5.10;51.20
2749;DHT22;1382;52.142;11.618;2024-03-08T06:49:03;5.10;51.30
2749;DHT22;1382;52.142;11.618;2024-03-08T06:51:30;5.10;51.30
2749;DHT22;1382;52.142;11.618;2024-03-08T06:53:57;5.10;51.30
2749;DHT22;1382;52.142;11.618;2024-03-08T06:56:25;5.20;51.50
2749;DHT22;1382;52.142;11.618;2024-03-08T06:58:52;5.20;51.40
2749;DHT22;1382;52.142;11.618;2024-03-08T07:01:19;5.30;51.60
2749;DHT22;1382;52.142;11.618;2024-03-08T07:03:46;5.20;51.60
2749;DHT22;1382;52.142;11.618;2024-03-08T07:06:12;5.20;51.60
2749;DHT22;1382;52.142;11.618;2024-03-08T07:08:39;5.20;51.60
2749;DHT22;1382;52.142;11.618;2024-03-08T07:11:06;5.30;51.60
2749;DHT22;1382;52.142;11.618;2024-03-08T07:13:35;5.30;51.60
2749;DHT22;1382;52.142;11.618;2024-03-08T07:16:02;5.40;51.60
2749;DHT22;1382;52.142;11.618;2024-03-08T07:18:29;5.40;51.60
2749;DHT22;1382;52.142;11.618;2024-03-08T07:20:56;5.40;51.60
2749;DHT22;1382;52.142;11.618;2024-03-08T07:23:22;5.40;51.60
2749;DHT22;1382;52.142;11.618;2024-03-08T07:25:49;5.40;51.60
2749;DHT22;1382;52.142;11.618;2024-03-08T07:28:16;5.50;51.70
2749;DHT22;1382;52.142;11.618;2024-03-08T07:30:44;5.60;51.80
2749;DHT22;1382;52.142;11.618;2024-03-08T07:33:12;5.60;51.70
2749;DHT22;1382;52.142;11.618;2024-03-08T07:35:40;5.60;51.70
2749;DHT22;1382;52.142;11.618;2024-03-08T07:38:07;5.60;51.70
2749;DHT22;1382;52.142;11.618;2024-03-08T07:40:35;5.70;51.70
2749;DHT22;1382;52.142;11.618;2024-03-08T07:43:02;5.80;51.70
2749;DHT22;1382;52.142;11.618;2024-03-08T07:45:29;5.80;51.60
2749;DHT22;1382;52.142;11.618;2024-03-08T07:47:57;5.90;52.30
2749;DHT22;1382;52.142;11.618;2024-03-08T07:50:24;5.90;51.50
2749;DHT22;1382;52.142;11.618;2024-03-08T07:52:51;6.00;51.50
2749;DHT22;1382;52.142;11.618;2024-03-08T07:55:18;6.10;51.60
2749;DHT22;1382;52.142;11.618;2024-03-08T07:57:45;6.10;51.70
2749;DHT22;1382;52.142;11.618;2024-03-08T08:00:13;6.10;51.80
2749;DHT22;1382;52.142;11.618;2024-03-08T08:02:40;6.10;51.80
2749;DHT22;1382;52.142;11.618;2024-03-08T08:05:08;6.20;51.80
2749;DHT22;1382;52.142;11.618;2024-03-08T08:07:35;6.30;51.70
2749;DHT22;1382;52.142;11.618;2024-03-08T08:10:02;6.30;51.60
2749;DHT22;1382;52.142;11.618;2024-03-08T08:12:29;6.40;51.60
2749;DHT22;1382;52.142;11.618;2024-03-08T08:14:56;6.40;51.60
2749;DHT22;1382;52.142;11.618;2024-03-08T08:17:22;6.40;51.80
2749;DHT22;1382;52.142;11.618;2024-03-08T08:19:49;6.50;51.90
2749;DHT22;1382;52.142;11.618;2024-03-08T08:22:17;6.50;51.90
2749;DHT22;1382;52.142;11.618;2024-03-08T08:24:44;6.60;51.90
2749;DHT22;1382;52.142;11.618;2024-03-08T08:27:11;6.70;51.90
2749;DHT22;1382;52.142;11.618;2024-03-08T08:29:38;6.70;51.80
2749;DHT22;1382;52.142;11.618;2024-03-08T08:32:05;6.80;51.80
2749;DHT22;1382;52.142;11.618;2024-03-08T08:34:32;6.80;51.70
2749;DHT22;1382;52.142;11.618;2024-03-08T08:36:59;6.90;51.90
2749;DHT22;1382;52.142;11.618;2024-03-08T08:39:47;7.00;51.90
2749;DHT22;1382;52.142;11.618;2024-03-08T08:42:18;7.10;51.90
2749;DHT22;1382;52.142;11.618;2024-03-08T08:44:47;7.10;52.00
2749;DHT22;1382;52.142;11.618;2024-03-08T08:47:14;7.20;52.10
2749;DHT22;1382;52.142;11.618;2024-03-08T08:49:45;7.40;52.20
2749;DHT22;1382;52.142;11.618;2024-03-08T08:52:12;7.40;52.20
2749;DHT22;1382;52.142;11.618;2024-03-08T08:54:44;7.40;52.00
2749;DHT22;1382;52.142;11.618;2024-03-08T08:57:14;7.50;52.00
2749;DHT22;1382;52.142;11.618;2024-03-08T08:59:41;7.60;52.10
2749;DHT22;1382;52.142;11.618;2024-03-08T09:02:08;7.70;52.20
2749;DHT22;1382;52.142;11.618;2024-03-08T09:04:38;7.80;52.30
2749;DHT22;1382;52.142;11.618;2024-03-08T09:07:05;7.90;52.30
2749;DHT22;1382;52.142;11.618;2024-03-08T09:09:32;8.00;52.60
2749;DHT22;1382;52.142;11.618;2024-03-08T09:12:03;8.20;52.70
2749;DHT22;1382;52.142;11.618;2024-03-08T09:14:32;8.20;52.60
2749;DHT22;1382;52.142;11.618;2024-03-08T09:16:59;8.30;52.40
2749;DHT22;1382;52.142;11.618;2024-03-08T09:19:26;8.40;52.40
2749;DHT22;1382;52.142;11.618;2024-03-08T09:21:53;8.50;52.40
2749;DHT22;1382;52.142;11.618;2024-03-08T09:24:20;8.60;53.10
2749;DHT22;1382;52.142;11.618;2024-03-08T09:26:47;8.80;52.80
2749;DHT22;1382;52.142;11.618;2024-03-08T09:29:15;8.80;52.50
2749;DHT22;1382;52.142;11.618;2024-03-08T09:31:42;8.90;52.50
2749;DHT22;1382;52.142;11.618;2024-03-08T09:34:18;8.90;52.00
2749;DHT22;1382;52.142;11.618;2024-03-08T09:39:19;9.10;52.10
2749;DHT22;1382;52.142;11.618;2024-03-08T09:41:46;9.20;52.40
2749;DHT22;1382;52.142;11.618;2024-03-08T09:44:12;9.30;52.70
2749;DHT22;1382;52.142;11.618;2024-03-08T09:46:40;9.40;52.40
2749;DHT22;1382;52.142;11.618;2024-03-08T09:49:08;9.60;52.80
2749;DHT22;1382;52.142;11.618;2024-03-08T09:51:35;9.70;53.00
2749;DHT22;1382;52.142;11.618;2024-03-08T09:54:02;9.80;52.90
2749;DHT22;1382;52.142;11.618;2024-03-08T09:56:40;9.90;53.20
2749;DHT22;1382;52.142;11.618;2024-03-08T09:59:07;10.00;52.80
2749;DHT22;1382;52.142;11.618;2024-03-08T10:01:34;10.10;52.80
2749;DHT22;1382;52.142;11.618;2024-03-08T10:04:03;10.20;52.50
2749;DHT22;1382;52.142;11.618;2024-03-08T10:06:30;10.40;52.30
2749;DHT22;1382;52.142;11.618;2024-03-08T10:08:57;10.40;52.50
2749;DHT22;1382;52.142;11.618;2024-03-08T10:11:24;10.30;52.40
2749;DHT22;1382;52.142;11.618;2024-03-08T10:13:51;10.60;52.40
2749;DHT22;1382;52.142;11.618;2024-03-08T10:16:19;10.70;52.50
2749;DHT22;1382;52.142;11.618;2024-03-08T10:18:46;10.70;52.70
2749;DHT22;1382;52.142;11.618;2024-03-08T10:21:14;10.70;51.40
2749;DHT22;1382;52.142;11.618;2024-03-08T10:23:41;10.80;52.00
2749;DHT22;1382;52.142;11.618;2024-03-08T10:26:11;10.90;52.30
2749;DHT22;1382;52.142;11.618;2024-03-08T10:28:38;11.00;52.30
2749;DHT22;1382;52.142;11.618;2024-03-08T10:31:05;11.10;51.30
2749;DHT22;1382;52.142;11.618;2024-03-08T10:33:32;11.20;51.90
2749;DHT22;1382;52.142;11.618;2024-03-08T10:35:59;11.30;52.10
2749;DHT22;1382;52.142;11.618;2024-03-08T10:38:31;11.40;52.00
2749;DHT22;1382;52.142;11.618;2024-03-08T10:40:58;11.50;52.70
2749;DHT22;1382;52.142;11.618;2024-03-08T10:43:25;11.50;51.60
2749;DHT22;1382;52.142;11.618;2024-03-08T10:46:06;11.60;51.80
2749;DHT22;1382;52.142;11.618;2024-03-08T10:48:43;11.70;51.50
2749;DHT22;1382;52.142;11.618;2024-03-08T10:51:11;11.80;52.20
2749;DHT22;1382;52.142;11.618;2024-03-08T10:53:40;11.90;52.80
2749;DHT22;1382;52.142;11.618;2024-03-08T10:56:07;11.90;50.90
2749;DHT22;1382;52.142;11.618;2024-03-08T10:58:35;12.00;51.60
2749;DHT22;1382;52.142;11.618;2024-03-08T11:01:03;12.10;51.20
2749;DHT22;1382;52.142;11.618;2024-03-08T11:03:48;12.10;51.40
2749;DHT22;1382;52.142;11.618;2024-03-08T11:06:17;12.30;51.70
2749;DHT22;1382;52.142;11.618;2024-03-08T11:08:46;12.30;52.20
2749;DHT22;1382;52.142;11.618;2024-03-08T11:11:29;12.30;51.90
2749;DHT22;1382;52.142;11.618;2024-03-08T11:14:01;12.60;51.50
2749;DHT22;1382;52.142;11.618;2024-03-08T11:16:38;12.40;50.50
2749;DHT22;1382;52.142;11.618;2024-03-08T11:19:23;12.50;50.80
2749;DHT22;1382;52.142;11.618;2024-03-08T11:21:57;12.70;50.10
2749;DHT22;1382;52.142;11.618;2024-03-08T11:24:25;12.60;50.30
2749;DHT22;1382;52.142;11.618;2024-03-08T11:26:57;12.70;51.70
2749;DHT22;1382;52.142;11.618;2024-03-08T11:29:33;12.80;51.20
2749;DHT22;1382;52.142;11.618;2024-03-08T11:32:04;12.90;51.10
2749;DHT22;1382;52.142;11.618;2024-03-08T11:34:32;13.20;50.60
2749;DHT22;1382;52.142;11.618;2024-03-08T11:36:59;13.10;50.60
2749;DHT22;1382;52.142;11.618;2024-03-08T11:39:30;13.10;51.30
2749;DHT22;1382;52.142;11.618;2024-03-08T11:41:57;13.30;51.30
2749;DHT22;1382;52.142;11.618;2024-03-08T11:44:27;13.40;50.80
2749;DHT22;1382;52.142;11.618;2024-03-08T11:46:54;13.50;51.80
2749;DHT22;1382;52.142;11.618;2024-03-08T11:49:21;13.50;51.10
2749;DHT22;1382;52.142;11.618;2024-03-08T11:51:51;13.50;51.60
2749;DHT22;1382;52.142;11.618;2024-03-08T11:54:19;13.50;50.50
2749;DHT22;1382;52.142;11.618;2024-03-08T11:56:47;13.50;50.70
2749;DHT22;1382;52.142;11.618;2024-03-08T11:59:14;13.60;50.30
2749;DHT22;1382;52.142;11.618;2024-03-08T12:01:41;13.70;50.80
2749;DHT22;1382;52.142;11.618;2024-03-08T12:04:12;13.70;49.50
2749;DHT22;1382;52.142;11.618;2024-03-08T12:06:40;13.70;50.30
2749;DHT22;1382;52.142;11.618;2024-03-08T12:09:14;13.80;50.30
2749;DHT22;1382;52.142;11.618;2024-03-08T12:12:00;13.90;51.00
2749;DHT22;1382;52.142;11.618;2024-03-08T12:14:30;14.20;50.10
2749;DHT22;1382;52.142;11.618;2024-03-08T12:17:05;14.00;49.70
2749;DHT22;1382;52.142;11.618;2024-03-08T12:19:46;13.90;51.00
2749;DHT22;1382;52.142;11.618;2024-03-08T12:22:15;14.30;50.40
2749;DHT22;1382;52.142;11.618;2024-03-08T12:24:42;14.20;49.80
2749;DHT22;1382;52.142;11.618;2024-03-08T12:27:19;14.40;50.70
2749;DHT22;1382;52.142;11.618;2024-03-08T12:29:53;14.40;50.20
2749;DHT22;1382;52.142;11.618;2024-03-08T12:35:50;14.40;49.00
2749;DHT22;1382;52.142;11.618;2024-03-08T12:38:22;14.50;48.90
2749;DHT22;1382;52.142;11.618;2024-03-08T12:40:55;14.40;49.20
2749;DHT22;1382;52.142;11.618;2024-03-08T12:43:51;14.60;50.00
2749;DHT22;1382;52.142;11.618;2024-03-08T12:47:04;14.60;48.50
2749;DHT22;1382;52.142;11.618;2024-03-08T12:49:38;14.50;48.50
2749;DHT22;1382;52.142;11.618;2024-03-08T12:52:10;14.70;49.40
2749;DHT22;1382;52.142;11.618;2024-03-08T12:54:55;14.80;48.20
2749;DHT22;1382;52.142;11.618;2024-03-08T12:57:38;14.80;47.90
2749;DHT22;1382;52.142;11.618;2024-03-08T13:00:26;14.80;48.30
2749;DHT22;1382;52.142;11.618;2024-03-08T13:03:10;14.80;47.00
2749;DHT22;1382;52.142;11.618;2024-03-08T13:05:45;14.80;47.90
2749;DHT22;1382;52.142;11.618;2024-03-08T13:08:41;14.80;47.30
2749;DHT22;1382;52.142;11.618;2024-03-08T13:14:46;14.80;47.30
2749;DHT22;1382;52.142;11.618;2024-03-08T13:17:52;15.10;48.50
2749;DHT22;1382;52.142;11.618;2024-03-08T13:20:45;15.00;47.40
2749;DHT22;1382;52.142;11.618;2024-03-08T13:23:40;15.20;47.20
2749;DHT22;1382;52.142;11.618;2024-03-08T13:29:52;15.20;47.70
2749;DHT22;1382;52.142;11.618;2024-03-08T13:39:20;15.20;46.70
2749;DHT22;1382;52.142;11.618;2024-03-08T13:41:59;15.30;46.50
2749;DHT22;1382;52.142;11.618;2024-03-08T13:48:07;15.40;45.70
2749;DHT22;1382;52.142;11.618;2024-03-08T13:51:11;15.30;46.40
2749;DHT22;1382;52.142;11.618;2024-03-08T13:54:30;15.40;46.00
2749;DHT22;1382;52.142;11.618;2024-03-08T13:57:05;15.40;46.20
2749;DHT22;1382;52.142;11.618;2024-03-08T14:02:32;15.40;46.30
2749;DHT22;1382;52.142;11.618;2024-03-08T14:05:10;15.40;45.80
2749;DHT22;1382;52.142;11.618;2024-03-08T14:07:59;15.40;46.10
2749;DHT22;1382;52.142;11.618;2024-03-08T14:13:13;15.40;46.40
2749;DHT22;1382;52.142;11.618;2024-03-08T14:16:04;15.60;46.20
2749;DHT22;1382;52.142;11.618;2024-03-08T14:18:33;15.50;45.40
2749;DHT22;1382;52.142;11.618;2024-03-08T14:21:08;15.50;46.00
2749;DHT22;1382;52.142;11.618;2024-03-08T14:24:09;15.60;45.70
2749;DHT22;1382;52.142;11.618;2024-03-08T14:26:41;15.60;45.10
2749;DHT22;1382;52.142;11.618;2024-03-08T14:29:16;15.60;45.30
2749;DHT22;1382;52.142;11.618;2024-03-08T14:32:04;15.60;45.00
2749;DHT22;1382;52.142;11.618;2024-03-08T14:34:34;15.70;45.30
2749;DHT22;1382;52.142;11.618;2024-03-08T14:37:05;15.80;45.70
2749;DHT22;1382;52.142;11.618;2024-03-08T14:40:30;15.80;45.90
2749;DHT22;1382;52.142;11.618;2024-03-08T14:43:16;15.80;43.90
2749;DHT22;1382;52.142;11.618;2024-03-08T14:45:53;15.90;44.80
2749;DHT22;1382;52.142;11.618;2024-03-08T14:48:42;15.90;44.60
2749;DHT22;1382;52.142;11.618;2024-03-08T14:51:55;15.80;44.60
2749;DHT22;1382;52.142;11.618;2024-03-08T14:54:40;15.80;43.40
2749;DHT22;1382;52.142;11.618;2024-03-08T15:07:46;16.00;43.80
2749;DHT22;1382;52.142;11.618;2024-03-08T15:10:23;16.00;45.20
2749;DHT22;1382;52.142;11.618;2024-03-08T15:13:07;16.10;44.10
2749;DHT22;1382;52.142;11.618;2024-03-08T15:15:45;16.00;45.10
2749;DHT22;1382;52.142;11.618;2024-03-08T15:18:24;16.20;43.70
2749;DHT22;1382;52.142;11.618;2024-03-08T15:20:57;16.10;44.20
2749;DHT22;1382;52.142;11.618;2024-03-08T15:23:48;16.10;43.50
2749;DHT22;1382;52.142;11.618;2024-03-08T15:26:22;16.00;42.70
2749;DHT22;1382;52.142;11.618;2024-03-08T15:28:54;16.10;43.80
2749;DHT22;1382;52.142;11.618;2024-03-08T15:31:46;16.20;43.40
2749;DHT22;1382;52.142;11.618;2024-03-08T15:34:59;16.10;42.50
2749;DHT22;1382;52.142;11.618;2024-03-08T15:41:06;16.30;43.20
2749;DHT22;1382;52.142;11.618;2024-03-08T15:54:08;16.00;42.00
2749;DHT22;1382;52.142;11.618;2024-03-08T15:56:47;15.90;41.60
2749;DHT22;1382;52.142;11.618;2024-03-08T16:03:34;15.80;42.10
2749;DHT22;1382;52.142;11.618;2024-03-08T16:06:34;15.80;41.30
2749;DHT22;1382;52.142;11.618;2024-03-08T16:12:50;15.80;42.20
2749;DHT22;1382;52.142;11.618;2024-03-08T16:15:34;15.60;41.40
2749;DHT22;1382;52.142;11.618;2024-03-08T16:18:18;15.50;41.10
2749;DHT22;1382;52.142;11.618;2024-03-08T16:21:06;15.50;41.20
2749;DHT22;1382;52.142;11.618;2024-03-08T16:23:46;15.40;41.50
2749;DHT22;1382;52.142;11.618;2024-03-08T16:26:17;15.40;40.90
2749;DHT22;1382;52.142;11.618;2024-03-08T16:28:57;15.30;41.30
2749;DHT22;1382;52.142;11.618;2024-03-08T16:31:27;15.50;41.10
2749;DHT22;1382;52.142;11.618;2024-03-08T16:34:06;15.20;41.50
2749;DHT22;1382;52.142;11.618;2024-03-08T16:36:52;15.20;41.20
2749;DHT22;1382;52.142;11.618;2024-03-08T16:39:23;15.10;41.20
2749;DHT22;1382;52.142;11.618;2024-03-08T16:42:02;15.00;41.60
2749;DHT22;1382;52.142;11.618;2024-03-08T16:44:35;14.90;41.50
2749;DHT22;1382;52.142;11.618;2024-03-08T16:47:16;14.70;41.40
2749;DHT22;1382;52.142;11.618;2024-03-08T16:49:44;14.80;41.20
2749;DHT22;1382;52.142;11.618;2024-03-08T16:52:22;14.80;42.20
2749;DHT22;1382;52.142;11.618;2024-03-08T16:55:22;14.60;42.00
2749;DHT22;1382;52.142;11.618;2024-03-08T16:57:49;14.50;42.10
2749;DHT22;1382;52.142;11.618;2024-03-08T17:00:19;14.40;42.10
2749;DHT22;1382;52.142;11.618;2024-03-08T17:02:46;14.40;42.10
2749;DHT22;1382;52.142;11.618;2024-03-08T17:05:25;14.40;42.50
2749;DHT22;1382;52.142;11.618;2024-03-08T17:07:56;14.20;42.30
2749;DHT22;1382;52.142;11.618;2024-03-08T17:10:27;14.20;42.60
2749;DHT22;1382;52.142;11.618;2024-03-08T17:12:55;14.10;42.90
2749;DHT22;1382;52.142;11.618;2024-03-08T17:15:24;14.10;42.90
2749;DHT22;1382;52.142;11.618;2024-03-08T17:17:53;13.90;42.80
2749;DHT22;1382;52.142;11.618;2024-03-08T17:20:21;13.90;43.30